createdAt,value
2019-01-03T00:01:45.548Z,25.17
2019-01-03T00:04:52.005Z,32.20
2019-01-03T00:07:31.034Z,27.93
2019-01-03T00:10:28.048Z,24.70
2019-01-03T00:13:18.757Z,28.77
2019-01-03T00:16:17.019Z,36.17
2019-01-03T00:19:17.080Z,28.00
2019-01-03T00:22:04.005Z,23.93
2019-01-03T00:25:01.088Z,32.40
2019-01-03T00:27:49.087Z,28.23
2019-01-03T00:30:34.059Z,24.50
2019-01-03T00:33:20.773Z,27.40
2019-01-03T00:36:27.055Z,23.47
2019-01-03T00:39:07.221Z,15.20
2019-01-03T00:42:10.204Z,36.10
2019-01-03T00:44:58.473Z,27.63
2019-01-03T00:47:46.414Z,17.90
2019-01-03T00:50:33.359Z,19.17
2019-01-03T00:53:27.332Z,19.50
2019-01-03T00:56:14.031Z,23.87
2019-01-03T00:58:58.253Z,21.60
2019-01-03T01:01:49.234Z,25.43
2019-01-03T01:04:35.463Z,25.73
2019-01-03T01:07:23.520Z,27.37
2019-01-03T01:10:10.663Z,18.40
2019-01-03T01:12:57.700Z,31.37
2019-01-03T01:15:44.950Z,33.80
2019-01-03T01:18:31.915Z,32.60
2019-01-03T01:21:27.994Z,50.53
2019-01-03T01:24:14.883Z,34.00
2019-01-03T01:27:01.644Z,32.37
2019-01-03T01:29:55.646Z,37.77
2019-01-03T01:32:42.403Z,26.63
2019-01-03T01:35:32.670Z,36.27
2019-01-03T01:38:20.567Z,26.40
2019-01-03T01:40:56.608Z,23.93
2019-01-03T01:43:44.428Z,39.73
2019-01-03T01:46:32.312Z,29.00
2019-01-03T01:49:18.870Z,31.87
2019-01-03T01:52:05.459Z,24.73
2019-01-03T01:55:02.755Z,22.53
2019-01-03T01:58:01.735Z,31.70
2019-01-03T02:00:40.515Z,24.83
2019-01-03T02:03:27.399Z,21.93
2019-01-03T02:06:11.315Z,21.87
2019-01-03T02:08:58.129Z,30.83
2019-01-03T02:11:37.383Z,22.93
2019-01-03T02:14:43.602Z,26.70
2019-01-03T02:17:37.444Z,24.60
2019-01-03T02:20:28.731Z,34.50
2019-01-03T02:23:22.662Z,28.83
2019-01-03T02:26:19.226Z,32.27
2019-01-03T02:29:12.808Z,29.93
2019-01-03T02:32:09.840Z,13.10
2019-01-03T02:34:56.693Z,31.03
2019-01-03T02:37:43.667Z,37.60
2019-01-03T02:40:43.887Z,38.43
2019-01-03T02:43:39.696Z,32.13
2019-01-03T02:46:28.162Z,25.63
2019-01-03T02:49:14.983Z,47.53
2019-01-03T02:52:06.596Z,32.10
2019-01-03T02:54:52.862Z,33.90
2019-01-03T02:57:41.367Z,35.77
2019-01-03T03:00:28.480Z,40.60
2019-01-03T03:03:19.448Z,22.23
2019-01-03T03:05:59.161Z,28.37
2019-01-03T03:08:46.912Z,20.10
2019-01-03T03:11:34.807Z,31.87
2019-01-03T03:14:21.455Z,16.90
2019-01-03T03:17:21.440Z,34.27
2019-01-03T03:20:07.853Z,35.47
2019-01-03T03:23:07.446Z,34.50
2019-01-03T03:25:53.136Z,11.80
2019-01-03T03:28:52.996Z,22.50
2019-01-03T03:31:56.044Z,23.13
2019-01-03T03:34:58.935Z,17.93
2019-01-03T03:37:43.718Z,20.40
2019-01-03T03:40:30.193Z,27.20
2019-01-03T03:43:16.867Z,23.93
2019-01-03T03:46:03.467Z,37.17
2019-01-03T03:48:57.393Z,24.20
2019-01-03T03:51:45.356Z,23.50
2019-01-03T03:54:48.479Z,21.40
2019-01-03T03:57:28.179Z,20.50
2019-01-03T04:00:25.871Z,20.27
2019-01-03T04:03:07.780Z,33.63
2019-01-03T04:05:58.543Z,24.70
2019-01-03T04:08:46.411Z,18.93
2019-01-03T04:11:33.039Z,18.47
2019-01-03T04:14:36.375Z,20.00
2019-01-03T04:17:27.337Z,28.70
2019-01-03T04:20:11.383Z,15.50
2019-01-03T04:23:02.429Z,25.07
2019-01-03T04:25:44.884Z,26.50
2019-01-03T04:28:41.952Z,22.93
2019-01-03T04:31:28.542Z,30.93
2019-01-03T04:34:13.644Z,33.23
2019-01-03T04:37:00.553Z,16.73
2019-01-03T04:39:43.693Z,23.97
2019-01-03T04:42:26.664Z,22.43
2019-01-03T04:45:23.335Z,36.53
2019-01-03T04:48:09.973Z,21.37
2019-01-03T04:51:00.920Z,20.00
2019-01-03T04:53:47.716Z,38.47
2019-01-03T04:56:44.765Z,16.70
2019-01-03T04:59:35.677Z,38.03
2019-01-03T05:02:24.448Z,26.83
2019-01-03T05:05:21.533Z,20.23
2019-01-03T05:08:21.930Z,11.17
2019-01-03T05:10:59.317Z,18.83
2019-01-03T05:13:47.271Z,14.57
2019-01-03T05:16:34.117Z,24.40
2019-01-03T05:19:31.575Z,20.17
2019-01-03T05:22:37.649Z,19.63
2019-01-03T05:25:25.999Z,31.03
2019-01-03T05:28:12.973Z,27.30
2019-01-03T05:30:59.816Z,25.23
2019-01-03T05:33:46.441Z,25.97
2019-01-03T05:36:33.633Z,19.60
2019-01-03T05:39:28.075Z,10.03
2019-01-03T05:42:19.016Z,20.97
2019-01-03T05:45:06.669Z,22.60
2019-01-03T05:48:03.511Z,44.83
2019-01-03T05:50:50.075Z,26.03
2019-01-03T05:53:36.418Z,21.03
2019-01-03T05:56:33.499Z,37.80
2019-01-03T05:59:19.912Z,31.80
2019-01-03T06:02:19.754Z,20.27
2019-01-03T06:05:07.989Z,20.43
2019-01-03T06:07:54.280Z,22.63
2019-01-03T06:10:46.667Z,32.73
2019-01-03T06:13:46.946Z,26.13
2019-01-03T06:16:40.784Z,19.27
2019-01-03T06:19:28.784Z,34.07
2019-01-03T06:22:19.379Z,15.83
2019-01-03T06:25:13.283Z,19.23
2019-01-03T06:28:08.131Z,30.83
2019-01-03T06:30:55.182Z,37.97
2019-01-03T06:33:41.928Z,23.07
2019-01-03T06:36:21.965Z,19.90
2019-01-03T06:39:12.857Z,32.60
2019-01-03T06:42:01.486Z,16.90
2019-01-03T06:44:51.003Z,14.97
2019-01-03T06:47:54.111Z,25.77
2019-01-03T06:50:45.188Z,24.87
2019-01-03T06:53:35.444Z,20.00
2019-01-03T06:56:23.440Z,25.17
2019-01-03T06:59:08.477Z,18.10
2019-01-03T07:01:59.230Z,18.00
2019-01-03T07:04:45.776Z,22.60
2019-01-03T07:07:33.971Z,22.83
2019-01-03T07:10:20.363Z,16.03
2019-01-03T07:13:09.500Z,24.07
2019-01-03T07:15:50.717Z,16.80
2019-01-03T07:18:37.944Z,29.50
2019-01-03T07:21:33.257Z,20.93
2019-01-03T07:24:19.327Z,25.77
2019-01-03T07:27:07.623Z,22.70
2019-01-03T07:29:54.758Z,17.37
2019-01-03T07:32:42.833Z,15.10
2019-01-03T07:35:30.880Z,24.47
2019-01-03T07:38:19.331Z,20.50
2019-01-03T07:41:25.221Z,17.93
2019-01-03T07:44:32.167Z,21.10
2019-01-03T07:47:25.917Z,15.53
2019-01-03T07:50:17.043Z,22.23
2019-01-03T07:53:05.601Z,26.23
2019-01-03T07:55:49.109Z,21.93
2019-01-03T07:58:49.262Z,22.33
2019-01-03T08:01:33.592Z,20.00
2019-01-03T08:04:19.349Z,20.93
2019-01-03T08:07:10.848Z,16.03
2019-01-03T08:09:57.500Z,18.93
2019-01-03T08:12:44.315Z,25.10
2019-01-03T08:15:30.665Z,10.67
2019-01-03T08:18:17.015Z,26.57
2019-01-03T08:21:03.763Z,12.83
2019-01-03T08:23:50.391Z,11.20
2019-01-03T08:26:37.249Z,17.90
2019-01-03T08:29:30.015Z,23.43
2019-01-03T08:32:21.287Z,21.40
2019-01-03T08:35:09.208Z,10.33
2019-01-03T08:38:00.190Z,15.67
2019-01-03T08:40:46.416Z,14.30
2019-01-03T08:43:49.761Z,20.93
2019-01-03T08:46:39.418Z,26.50
2019-01-03T08:49:30.347Z,8.83
2019-01-03T08:52:20.968Z,10.63
2019-01-03T08:55:10.716Z,16.30
2019-01-03T08:57:57.471Z,25.00
2019-01-03T09:00:44.549Z,23.93
2019-01-03T09:03:31.907Z,9.47
2019-01-03T09:06:20.161Z,7.40
2019-01-03T09:09:06.740Z,8.23
2019-01-03T09:12:03.935Z,17.63
2019-01-03T09:14:54.636Z,20.23
2019-01-03T09:17:41.175Z,9.20
2019-01-03T09:20:32.940Z,8.47
2019-01-03T09:23:27.036Z,10.53
2019-01-03T09:26:33.661Z,5.57
2019-01-03T09:29:21.500Z,12.03
2019-01-03T09:32:15.960Z,19.07
2019-01-03T09:35:13.082Z,13.53
2019-01-03T09:37:59.399Z,10.60
2019-01-03T09:40:46.759Z,16.70
2019-01-03T09:43:37.763Z,19.07
2019-01-03T09:46:06.764Z,6.27
2019-01-03T09:48:35.584Z,10.83
2019-01-03T09:51:04.959Z,14.17
2019-01-03T09:53:34.067Z,7.87
2019-01-03T09:56:03.179Z,7.13
2019-01-03T09:58:32.145Z,11.37
2019-01-03T10:01:01.019Z,13.03
2019-01-03T10:03:29.823Z,4.83
2019-01-03T10:05:59.259Z,7.27
2019-01-03T10:08:28.351Z,10.77
2019-01-03T10:10:57.398Z,13.10
2019-01-03T10:13:26.716Z,15.40
2019-01-03T10:15:55.524Z,16.27
2019-01-03T10:18:24.408Z,6.83
2019-01-03T10:20:53.376Z,9.87
2019-01-03T10:23:22.484Z,13.43
2019-01-03T10:25:51.308Z,14.73
2019-01-03T10:28:20.467Z,9.30
2019-01-03T10:30:49.271Z,6.63
2019-01-03T10:33:18.363Z,18.33
2019-01-03T10:35:47.339Z,10.70
2019-01-03T10:38:20.974Z,8.63
2019-01-03T10:40:47.008Z,9.83
2019-01-03T10:43:16.124Z,12.73
2019-01-03T10:45:45.594Z,18.13
2019-01-03T10:48:14.410Z,9.30
2019-01-03T10:50:43.911Z,8.03
2019-01-03T10:53:13.140Z,5.40
2019-01-03T10:55:41.975Z,6.83
2019-01-03T10:58:11.536Z,13.93
2019-01-03T11:00:40.359Z,12.03
2019-01-03T11:03:09.452Z,10.77
2019-01-03T11:05:38.236Z,5.27
2019-01-03T11:08:07.146Z,12.50
2019-01-03T11:10:35.959Z,7.00
2019-01-03T11:13:04.872Z,10.80
2019-01-03T11:15:34.000Z,7.30
2019-01-03T11:18:02.966Z,3.50
2019-01-03T11:20:31.924Z,7.93
2019-01-03T11:23:00.709Z,8.53
2019-01-03T11:25:29.586Z,11.03
2019-01-03T11:27:59.482Z,10.47
2019-01-03T11:30:28.360Z,8.73
2019-01-03T11:32:57.771Z,10.20
2019-01-03T11:35:27.045Z,4.83
2019-01-03T11:37:55.853Z,7.03
2019-01-03T11:40:25.178Z,12.33
2019-01-03T11:42:54.062Z,10.40
2019-01-03T11:45:23.780Z,8.67
2019-01-03T11:47:52.759Z,13.17
2019-01-03T11:50:21.588Z,12.13
2019-01-03T11:52:50.760Z,13.20
2019-01-03T11:55:19.686Z,17.57
2019-01-03T11:57:48.853Z,15.17
2019-01-03T12:00:17.907Z,6.73
2019-01-03T12:02:46.814Z,7.30
2019-01-03T12:05:15.664Z,8.40
2019-01-03T12:07:44.466Z,16.67
2019-01-03T12:10:13.908Z,8.20
2019-01-03T12:12:42.713Z,8.93
2019-01-03T12:15:11.523Z,9.97
2019-01-03T12:17:40.342Z,13.90
2019-01-03T12:20:09.514Z,13.13
2019-01-03T12:22:38.508Z,6.70
2019-01-03T12:25:07.403Z,11.57
2019-01-03T12:27:36.339Z,7.37
2019-01-03T12:30:06.583Z,12.83
2019-01-03T12:32:35.716Z,5.67
2019-01-03T12:35:04.704Z,6.90
2019-01-03T12:37:33.557Z,10.70
2019-01-03T12:40:02.468Z,12.83
2019-01-03T12:42:31.284Z,12.63
2019-01-03T12:45:00.290Z,11.67
2019-01-03T12:47:29.390Z,17.03
2019-01-03T12:49:58.181Z,8.33
2019-01-03T12:52:26.999Z,11.80
2019-01-03T12:54:56.139Z,11.33
2019-01-03T12:57:24.944Z,10.13
2019-01-03T12:59:53.808Z,11.53
2019-01-03T13:02:22.727Z,13.63
2019-01-03T13:04:51.537Z,5.17
2019-01-03T13:07:20.372Z,10.40
2019-01-03T13:09:49.504Z,7.50
2019-01-03T13:12:18.344Z,18.07
2019-01-03T13:14:47.220Z,6.50
2019-01-03T13:17:16.106Z,18.00
2019-01-03T13:19:45.017Z,12.67
2019-01-03T13:22:13.845Z,3.63
2019-01-03T13:24:42.674Z,4.90
2019-01-03T13:27:11.663Z,21.33
2019-01-03T13:29:40.482Z,9.33
2019-01-03T13:32:09.311Z,7.77
2019-01-03T13:34:38.602Z,6.40
2019-01-03T13:37:07.708Z,6.37
2019-01-03T13:39:36.549Z,5.40
2019-01-03T13:42:05.711Z,9.53
2019-01-03T13:44:34.948Z,8.17
2019-01-03T13:47:03.863Z,13.23
2019-01-03T13:49:32.736Z,6.47
2019-01-03T13:52:01.638Z,11.20
2019-01-03T13:54:30.777Z,15.30
2019-01-03T13:56:59.863Z,5.33
2019-01-03T13:59:28.746Z,11.17
2019-01-03T14:01:57.868Z,7.60
2019-01-03T14:04:26.663Z,8.37
2019-01-03T14:06:55.490Z,31.47
2019-01-03T14:09:24.396Z,4.90
2019-01-03T14:11:53.216Z,13.03
2019-01-03T14:14:22.031Z,8.87
2019-01-03T14:16:50.901Z,3.73
2019-01-03T14:19:19.713Z,7.67
2019-01-03T14:21:48.775Z,5.67
2019-01-03T14:24:17.652Z,15.53
2019-01-03T14:26:46.525Z,10.83
2019-01-03T14:29:15.348Z,4.63
2019-01-03T14:31:44.271Z,13.60
2019-01-03T14:34:13.109Z,10.27
2019-01-03T14:36:42.288Z,11.57
2019-01-03T14:39:11.162Z,9.20
2019-01-03T14:41:40.023Z,5.33
2019-01-03T14:44:09.308Z,7.10
2019-01-03T14:46:38.493Z,9.97
2019-01-03T14:49:07.361Z,3.33
2019-01-03T14:51:37.228Z,3.70
2019-01-03T14:54:06.481Z,10.97
2019-01-03T14:56:35.420Z,5.90
2019-01-03T14:59:04.399Z,17.30
2019-01-03T15:01:33.269Z,7.20
2019-01-03T15:04:02.279Z,9.73
2019-01-03T15:06:31.369Z,8.67
2019-01-03T15:09:00.185Z,9.77
2019-01-03T15:11:29.047Z,3.93
2019-01-03T15:13:58.216Z,6.00
2019-01-03T15:16:27.042Z,10.93
2019-01-03T15:18:55.836Z,8.57
2019-01-03T15:21:24.732Z,7.40
2019-01-03T15:23:53.573Z,10.07
2019-01-03T15:26:22.446Z,5.30
2019-01-03T15:28:51.911Z,9.03
2019-01-03T15:31:20.730Z,12.33
2019-01-03T15:33:49.560Z,12.27
2019-01-03T15:36:18.573Z,15.63
2019-01-03T15:38:47.434Z,10.40
2019-01-03T15:41:16.298Z,15.53
2019-01-03T15:43:45.256Z,3.83
2019-01-03T15:46:14.082Z,5.23
2019-01-03T15:48:43.202Z,8.40
2019-01-03T15:51:12.005Z,9.90
2019-01-03T15:53:41.251Z,9.33
2019-01-03T15:56:10.089Z,10.57
2019-01-03T15:58:38.900Z,10.17
2019-01-03T16:01:08.472Z,6.13
2019-01-03T16:03:37.518Z,15.40
2019-01-03T16:06:06.329Z,16.17
2019-01-03T16:08:35.203Z,5.80
2019-01-03T16:11:04.160Z,14.83
2019-01-03T16:13:33.051Z,14.13
2019-01-03T16:16:01.960Z,6.20
2019-01-03T16:18:30.886Z,3.83
2019-01-03T16:20:59.798Z,8.87
2019-01-03T16:23:28.642Z,5.20
2019-01-03T16:25:57.446Z,4.40
2019-01-03T16:28:26.318Z,13.10
2019-01-03T16:30:55.115Z,7.00
2019-01-03T16:33:23.914Z,4.87
2019-01-03T16:35:52.889Z,8.40
2019-01-03T16:38:21.708Z,10.00
2019-01-03T16:40:51.156Z,4.37
2019-01-03T16:43:20.067Z,5.50
2019-01-03T16:45:48.952Z,17.90
2019-01-03T16:48:17.940Z,12.07
2019-01-03T16:50:47.103Z,5.37
2019-01-03T16:53:15.903Z,6.73
2019-01-03T16:55:44.855Z,4.30
2019-01-03T16:58:13.664Z,11.10
2019-01-03T17:00:43.277Z,6.50
2019-01-03T17:03:12.200Z,9.73
2019-01-03T17:05:41.109Z,12.93
2019-01-03T17:08:09.992Z,7.80
2019-01-03T17:10:44.284Z,10.30
2019-01-03T17:13:13.236Z,6.10
2019-01-03T17:15:42.127Z,8.70
2019-01-03T17:18:10.929Z,22.13
2019-01-03T17:20:40.071Z,10.73
2019-01-03T17:23:08.946Z,10.83
2019-01-03T17:25:37.939Z,12.27
2019-01-03T17:28:07.043Z,7.63
2019-01-03T17:30:35.953Z,5.60
2019-01-03T17:33:04.919Z,7.50
2019-01-03T17:35:34.239Z,7.77
2019-01-03T17:38:03.025Z,7.13
2019-01-03T17:40:32.089Z,11.53
2019-01-03T17:43:00.947Z,10.43
2019-01-03T17:45:29.751Z,6.43
2019-01-03T17:47:58.550Z,11.90
2019-01-03T17:50:27.559Z,7.03
2019-01-03T17:52:56.449Z,7.23
2019-01-03T17:55:25.348Z,8.87
2019-01-03T17:57:54.361Z,7.77
2019-01-03T18:00:23.433Z,8.23
2019-01-03T18:02:52.828Z,7.37
2019-01-03T18:05:21.830Z,13.37
2019-01-03T18:07:50.711Z,8.20
2019-01-03T18:10:19.679Z,13.70
2019-01-03T18:12:48.566Z,8.60
2019-01-03T18:15:17.371Z,9.50
2019-01-03T18:17:46.619Z,12.20
2019-01-03T18:20:17.160Z,6.80
2019-01-03T18:22:46.048Z,5.57
2019-01-03T18:25:15.004Z,5.90
2019-01-03T18:27:43.907Z,5.67
2019-01-03T18:30:13.371Z,8.37
2019-01-03T18:32:42.269Z,8.80
2019-01-03T18:35:11.247Z,3.80
2019-01-03T18:37:40.036Z,4.27
2019-01-03T18:40:14.083Z,6.50
2019-01-03T18:42:42.968Z,11.33
2019-01-03T18:45:14.678Z,5.27
2019-01-03T18:47:43.480Z,6.13
2019-01-03T18:50:12.418Z,7.43
2019-01-03T18:52:41.248Z,8.30
2019-01-03T18:55:10.235Z,6.07
2019-01-03T18:57:39.074Z,16.83
2019-01-03T19:00:09.443Z,6.40
2019-01-03T19:02:38.787Z,21.17
2019-01-03T19:05:07.847Z,8.63
2019-01-03T19:07:36.712Z,7.83
2019-01-03T19:10:07.374Z,6.80
2019-01-03T19:12:36.546Z,10.10
2019-01-03T19:15:05.931Z,10.57
2019-01-03T19:17:35.036Z,11.87
2019-01-03T19:20:05.197Z,5.53
2019-01-03T19:22:34.091Z,15.13
2019-01-03T19:25:03.120Z,6.33
2019-01-03T19:27:32.053Z,4.13
2019-01-03T19:30:00.987Z,7.93
2019-01-03T19:32:29.903Z,9.60
2019-01-03T19:34:58.840Z,10.73
2019-01-03T19:37:28.291Z,10.03
2019-01-03T19:39:57.223Z,8.30
2019-01-03T19:42:26.156Z,7.50
2019-01-03T19:44:55.108Z,5.90
2019-01-03T19:47:23.940Z,10.53
2019-01-03T19:49:52.819Z,10.27
2019-01-03T19:52:21.711Z,10.23
2019-01-03T19:54:50.521Z,6.60
2019-01-03T19:57:19.405Z,17.53
2019-01-03T19:59:48.623Z,9.70
2019-01-03T20:02:17.419Z,14.33
2019-01-03T20:04:46.292Z,12.10
2019-01-03T20:07:15.247Z,18.03
2019-01-03T20:09:44.052Z,15.87
2019-01-03T20:12:12.966Z,12.60
2019-01-03T20:14:42.165Z,18.13
2019-01-03T20:17:11.043Z,10.00
2019-01-03T20:19:39.903Z,16.80
2019-01-03T20:22:09.225Z,15.10
2019-01-03T20:24:38.078Z,11.70
2019-01-03T20:27:08.223Z,8.70
2019-01-03T20:29:37.215Z,8.27
2019-01-03T20:32:06.033Z,10.53
2019-01-03T20:34:34.925Z,11.77
2019-01-03T20:37:04.155Z,23.37
2019-01-03T20:39:33.163Z,15.37
2019-01-03T20:42:02.574Z,9.13
2019-01-03T20:44:31.512Z,21.20
2019-01-03T20:47:00.805Z,9.87
2019-01-03T20:49:29.740Z,20.63
2019-01-03T20:51:58.818Z,11.43
2019-01-03T20:54:27.799Z,18.77
2019-01-03T20:56:56.941Z,13.03
2019-01-03T20:59:26.412Z,9.90
2019-01-03T21:01:55.625Z,12.43
2019-01-03T21:04:24.516Z,20.60
2019-01-03T21:06:53.411Z,17.73
2019-01-03T21:09:22.367Z,14.90
2019-01-03T21:11:51.945Z,10.67
2019-01-03T21:14:21.079Z,11.77
2019-01-03T21:16:49.992Z,12.47
2019-01-03T21:19:18.801Z,24.43
2019-01-03T21:21:47.723Z,11.03
2019-01-03T21:24:17.128Z,6.33
2019-01-03T21:26:45.925Z,11.70
2019-01-03T21:29:14.942Z,18.90
2019-01-03T21:31:43.978Z,14.53
2019-01-03T21:34:13.329Z,13.37
2019-01-03T21:36:42.462Z,12.90
2019-01-03T21:39:11.719Z,9.57
2019-01-03T21:41:40.655Z,16.63
2019-01-03T21:44:09.855Z,14.50
2019-01-03T21:46:38.768Z,10.83
2019-01-03T21:49:07.620Z,11.50
2019-01-03T21:51:36.451Z,17.30
2019-01-03T21:54:05.655Z,21.00
2019-01-03T21:56:34.487Z,15.40
2019-01-03T21:59:03.661Z,12.40
2019-01-03T22:01:32.475Z,8.60
2019-01-03T22:04:01.544Z,16.30
2019-01-03T22:06:30.381Z,16.70
2019-01-03T22:08:59.604Z,11.50
2019-01-03T22:11:28.422Z,13.40
2019-01-03T22:13:57.268Z,14.97
2019-01-03T22:16:26.131Z,17.90
2019-01-03T22:18:54.972Z,13.73
2019-01-03T22:21:23.770Z,11.40
2019-01-03T22:23:52.570Z,22.73
2019-01-03T22:26:21.626Z,10.87
2019-01-03T22:28:50.440Z,19.53
2019-01-03T22:31:20.139Z,23.23
2019-01-03T22:33:49.023Z,12.63
2019-01-03T22:36:17.817Z,23.17
2019-01-03T22:38:46.627Z,18.40
2019-01-03T22:41:15.753Z,16.83
2019-01-03T22:43:44.653Z,14.33
2019-01-03T22:46:13.540Z,14.87
2019-01-03T22:48:42.506Z,25.77
2019-01-03T22:51:11.338Z,23.53
2019-01-03T22:53:40.163Z,17.70
2019-01-03T22:56:09.120Z,20.83
2019-01-03T22:58:37.931Z,30.67
2019-01-03T23:01:07.760Z,18.47
2019-01-03T23:03:36.679Z,17.93
2019-01-03T23:06:05.623Z,20.80
2019-01-03T23:08:34.797Z,16.00
2019-01-03T23:11:03.676Z,25.97
2019-01-03T23:13:32.495Z,20.57
2019-01-03T23:16:01.355Z,29.13
2019-01-03T23:18:31.508Z,16.73
2019-01-03T23:21:01.057Z,22.37
2019-01-03T23:23:30.247Z,22.50
2019-01-03T23:26:01.070Z,19.60
2019-01-03T23:28:30.171Z,18.30
2019-01-03T23:30:58.996Z,20.10
2019-01-03T23:33:27.934Z,18.03
2019-01-03T23:35:56.736Z,16.23
2019-01-03T23:38:25.720Z,21.37
2019-01-03T23:40:54.969Z,18.50
2019-01-03T23:43:23.798Z,26.70
2019-01-03T23:45:52.590Z,20.00
2019-01-03T23:48:21.583Z,19.60
2019-01-03T23:50:50.520Z,23.37
2019-01-03T23:53:19.464Z,23.57
2019-01-03T23:55:54.069Z,29.57
2019-01-03T23:58:23.069Z,17.30
